createdAt,value
2023-05-19T00:01:17.799Z,2.93
2023-05-19T00:03:56.043Z,2.97
2023-05-19T00:06:27.687Z,2.87
2023-05-19T00:09:01.497Z,2.77
2023-05-19T00:11:31.269Z,2.70
2023-05-19T00:14:02.818Z,3.13
2023-05-19T00:16:33.397Z,3.40
2023-05-19T00:19:03.994Z,2.87
2023-05-19T00:21:34.435Z,2.77
2023-05-19T00:24:06.790Z,3.37
2023-05-19T00:26:36.570Z,2.83
2023-05-19T00:29:07.978Z,3.00
2023-05-19T00:31:37.513Z,2.70
2023-05-19T00:34:07.080Z,3.03
2023-05-19T00:36:36.879Z,2.80
2023-05-19T00:39:08.952Z,2.90
2023-05-19T00:41:38.712Z,3.13
2023-05-19T00:44:09.893Z,2.60
2023-05-19T00:46:39.457Z,2.60
2023-05-19T00:49:09.011Z,2.87
2023-05-19T00:51:38.782Z,2.90
2023-05-19T00:54:11.253Z,2.77
2023-05-19T00:56:40.863Z,2.70
2023-05-19T00:59:10.868Z,3.23
2023-05-19T01:01:40.404Z,3.13
2023-05-19T01:04:11.520Z,2.90
2023-05-19T01:06:41.326Z,3.10
2023-05-19T01:09:13.719Z,3.30
2023-05-19T01:11:43.195Z,3.15
2023-05-19T01:14:12.799Z,2.63
2023-05-19T01:16:47.626Z,2.90
2023-05-19T01:19:33.961Z,2.90
2023-05-19T01:22:23.129Z,3.13
2023-05-19T01:25:27.406Z,3.13
2023-05-19T01:28:23.446Z,2.83
2023-05-19T01:30:58.529Z,2.93
2023-05-19T01:33:31.404Z,2.50
2023-05-19T01:36:03.181Z,2.80
2023-05-19T01:38:33.353Z,2.60
2023-05-19T01:41:03.943Z,2.50
2023-05-19T01:43:34.224Z,2.97
2023-05-19T01:46:06.447Z,2.60
2023-05-19T01:48:36.772Z,2.85
2023-05-19T01:51:06.459Z,2.80
2023-05-19T01:53:36.193Z,3.13
2023-05-19T01:56:06.185Z,2.90
2023-05-19T01:58:43.778Z,3.20
2023-05-19T02:01:24.781Z,3.83
2023-05-19T02:04:09.767Z,2.60
2023-05-19T02:06:44.625Z,3.10
2023-05-19T02:09:19.073Z,2.80
2023-05-19T02:11:55.068Z,2.83
2023-05-19T02:14:32.528Z,3.23
2023-05-19T02:17:07.186Z,3.00
2023-05-19T02:19:41.228Z,3.00
2023-05-19T02:22:11.002Z,2.53
2023-05-19T02:24:41.522Z,3.10
2023-05-19T02:27:11.008Z,2.40
2023-05-19T02:29:40.494Z,2.90
2023-05-19T02:32:13.640Z,3.23
2023-05-19T02:34:45.693Z,3.13
2023-05-19T02:37:15.788Z,2.95
2023-05-19T02:39:46.386Z,3.40
2023-05-19T02:42:17.892Z,2.80
2023-05-19T02:44:47.424Z,3.00
2023-05-19T02:47:19.487Z,2.80
2023-05-19T02:49:49.080Z,2.75
2023-05-19T02:52:18.554Z,3.50
2023-05-19T02:54:48.126Z,2.37
2023-05-19T02:57:17.580Z,3.07
2023-05-19T02:59:47.205Z,3.10
2023-05-19T03:02:19.244Z,3.00
2023-05-19T03:04:48.740Z,3.28
2023-05-19T03:07:18.324Z,2.90
2023-05-19T03:09:47.784Z,3.70
2023-05-19T03:12:17.242Z,3.23
2023-05-19T03:14:47.702Z,3.40
2023-05-19T03:17:19.802Z,3.40
2023-05-19T03:19:49.402Z,3.03
2023-05-19T03:22:21.053Z,3.27
2023-05-19T03:24:51.820Z,3.23
2023-05-19T03:27:21.392Z,3.13
2023-05-19T03:29:50.956Z,3.37
2023-05-19T03:32:23.221Z,3.40
2023-05-19T03:34:53.017Z,3.30
2023-05-19T03:37:22.667Z,3.10
2023-05-19T03:39:52.131Z,3.50
2023-05-19T03:42:21.762Z,3.30
2023-05-19T03:44:51.784Z,3.40
2023-05-19T03:47:24.008Z,3.57
2023-05-19T03:50:05.108Z,3.17
2023-05-19T03:52:55.348Z,3.63
2023-05-19T03:55:30.478Z,3.03
2023-05-19T03:57:59.982Z,3.40
2023-05-19T04:00:32.451Z,3.58
2023-05-19T04:03:04.881Z,3.67
2023-05-19T04:05:34.537Z,3.65
2023-05-19T04:08:04.087Z,3.67
2023-05-19T04:10:33.804Z,3.00
2023-05-19T04:13:03.534Z,3.30
2023-05-19T04:15:33.164Z,3.00
2023-05-19T04:18:05.276Z,3.57
2023-05-19T04:20:35.649Z,3.50
2023-05-19T04:23:06.080Z,3.50
2023-05-19T04:25:36.468Z,2.90
2023-05-19T04:28:06.274Z,3.60
2023-05-19T04:30:37.170Z,3.63
2023-05-19T04:33:09.337Z,3.50
2023-05-19T04:35:39.834Z,3.33
2023-05-19T04:38:12.170Z,3.63
2023-05-19T04:40:43.342Z,3.30
2023-05-19T04:43:13.643Z,3.53
2023-05-19T04:45:44.286Z,3.37
2023-05-19T04:48:17.398Z,4.17
2023-05-19T04:50:48.994Z,3.88
2023-05-19T04:53:18.835Z,4.30
2023-05-19T04:55:48.381Z,3.50
2023-05-19T04:58:20.092Z,3.87
2023-05-19T05:00:50.861Z,4.45
2023-05-19T05:03:23.253Z,3.20
2023-05-19T05:05:53.963Z,3.87
2023-05-19T05:08:24.605Z,4.17
2023-05-19T05:10:56.521Z,3.53
2023-05-19T05:13:27.465Z,4.07
2023-05-19T05:15:58.685Z,4.10
2023-05-19T05:18:31.930Z,3.77
2023-05-19T05:21:03.587Z,3.60
2023-05-19T05:23:33.750Z,3.73
2023-05-19T05:26:10.538Z,4.10
2023-05-19T05:28:40.245Z,3.37
2023-05-19T05:31:09.776Z,3.53
2023-05-19T05:33:42.259Z,3.57
2023-05-19T05:36:12.708Z,3.42
2023-05-19T05:38:42.360Z,4.00
2023-05-19T05:41:12.108Z,5.30
2023-05-19T05:43:41.650Z,3.37
2023-05-19T05:46:11.551Z,4.27
2023-05-19T05:48:44.459Z,4.20
2023-05-19T05:51:15.372Z,3.83
2023-05-19T05:53:47.639Z,3.90
2023-05-19T05:56:19.056Z,3.50
2023-05-19T05:58:53.929Z,3.60
2023-05-19T06:01:24.178Z,3.50
2023-05-19T06:03:56.814Z,3.40
2023-05-19T06:06:27.185Z,3.30
2023-05-19T06:08:57.767Z,3.17
2023-05-19T06:11:28.875Z,3.67
2023-05-19T06:14:00.729Z,3.77
2023-05-19T06:16:48.245Z,4.00
2023-05-19T06:19:21.836Z,3.17
2023-05-19T06:21:51.554Z,4.03
2023-05-19T06:24:21.070Z,4.43
2023-05-19T06:26:51.004Z,3.33
2023-05-19T06:29:21.427Z,3.40
2023-05-19T06:31:52.329Z,3.93
2023-05-19T06:34:24.629Z,4.50
2023-05-19T06:36:54.206Z,3.67
2023-05-19T06:39:25.013Z,3.53
2023-05-19T06:41:54.573Z,3.50
2023-05-19T06:44:46.967Z,3.40
2023-05-19T06:47:18.524Z,3.50
2023-05-19T06:49:55.482Z,3.63
2023-05-19T06:52:28.541Z,3.40
2023-05-19T06:54:58.949Z,3.20
2023-05-19T06:57:28.472Z,2.90
2023-05-19T06:59:59.266Z,3.47
2023-05-19T07:02:29.414Z,4.63
2023-05-19T07:05:04.571Z,3.70
2023-05-19T07:07:34.066Z,3.90
2023-05-19T07:10:04.283Z,3.43
2023-05-19T07:12:35.126Z,4.00
2023-05-19T07:15:04.692Z,3.43
2023-05-19T07:17:34.589Z,3.20
2023-05-19T07:20:10.148Z,3.80
2023-05-19T07:22:40.035Z,4.07
2023-05-19T07:25:11.116Z,3.60
2023-05-19T07:27:41.985Z,3.55
2023-05-19T07:30:12.469Z,3.27
2023-05-19T07:32:42.054Z,3.30
2023-05-19T07:35:14.235Z,3.10
2023-05-19T07:37:43.751Z,3.00
2023-05-19T07:40:13.742Z,2.80
2023-05-19T07:42:44.689Z,3.20
2023-05-19T07:45:14.494Z,2.67
2023-05-19T07:47:44.058Z,2.97
2023-05-19T07:50:16.405Z,3.10
2023-05-19T07:52:45.963Z,3.08
2023-05-19T07:55:15.471Z,3.53
2023-05-19T07:57:44.983Z,3.23
2023-05-19T08:00:15.740Z,3.27
2023-05-19T08:02:45.359Z,2.80
2023-05-19T08:05:17.466Z,2.97
2023-05-19T08:07:47.189Z,3.13
2023-05-19T08:10:16.941Z,2.57
2023-05-19T08:12:46.824Z,2.77
2023-05-19T08:15:16.693Z,2.97
2023-05-19T08:17:46.207Z,2.53
2023-05-19T08:20:18.812Z,3.20
2023-05-19T08:22:48.268Z,2.60
2023-05-19T08:25:19.894Z,4.57
2023-05-19T08:27:49.449Z,2.73
2023-05-19T08:30:18.916Z,4.03
2023-05-19T08:32:48.938Z,2.30
2023-05-19T08:35:21.252Z,2.50
2023-05-19T08:37:50.709Z,2.80
2023-05-19T08:40:21.004Z,2.67
2023-05-19T08:42:50.774Z,2.83
2023-05-19T08:45:20.649Z,2.80
2023-05-19T08:47:50.225Z,2.40
2023-05-19T08:50:27.001Z,2.63
2023-05-19T08:53:04.275Z,2.50
2023-05-19T08:55:38.535Z,2.33
2023-05-19T08:58:08.207Z,2.47
2023-05-19T09:00:38.066Z,2.70
2023-05-19T09:03:18.350Z,2.23
2023-05-19T09:05:55.124Z,2.50
2023-05-19T09:08:24.873Z,2.95
2023-05-19T09:10:54.339Z,2.23
2023-05-19T09:13:23.955Z,2.57
2023-05-19T09:15:55.395Z,2.27
2023-05-19T09:18:26.731Z,2.40
2023-05-19T09:21:02.800Z,2.40
2023-05-19T09:23:34.520Z,2.90
2023-05-19T09:26:07.481Z,2.37
2023-05-19T09:28:38.532Z,2.43
2023-05-19T09:31:09.538Z,2.30
2023-05-19T09:33:41.560Z,2.47
2023-05-19T09:36:14.964Z,3.33
2023-05-19T09:38:44.486Z,2.92
2023-05-19T09:41:17.476Z,2.70
2023-05-19T09:43:57.287Z,3.00
2023-05-19T09:46:30.437Z,2.70
2023-05-19T09:49:00.485Z,2.53
2023-05-19T09:51:32.725Z,2.80
2023-05-19T09:54:02.330Z,2.53
2023-05-19T09:56:36.994Z,2.50
2023-05-19T09:59:09.979Z,2.63
2023-05-19T10:01:41.789Z,2.67
2023-05-19T10:04:11.835Z,2.70
2023-05-19T10:06:44.621Z,3.10
2023-05-19T10:09:14.428Z,2.60
2023-05-19T10:11:44.624Z,2.38
2023-05-19T10:14:14.349Z,2.40
2023-05-19T10:16:44.595Z,2.60
2023-05-19T10:19:15.684Z,2.40
2023-05-19T10:21:47.792Z,2.47
2023-05-19T10:24:17.340Z,2.55
2023-05-19T10:26:49.437Z,2.37
2023-05-19T10:29:22.795Z,2.13
2023-05-19T10:31:55.239Z,3.03
2023-05-19T10:34:40.731Z,2.38
2023-05-19T10:37:20.094Z,2.43
2023-05-19T10:39:53.854Z,2.03
2023-05-19T10:42:35.450Z,2.22
2023-05-19T10:45:13.412Z,2.00
2023-05-19T10:47:43.762Z,2.10
2023-05-19T10:50:13.968Z,2.47
2023-05-19T10:52:46.063Z,2.00
2023-05-19T10:55:17.975Z,2.20
2023-05-19T10:57:57.145Z,2.08
2023-05-19T11:00:34.036Z,1.98
2023-05-19T11:03:16.719Z,1.50
2023-05-19T11:05:50.148Z,1.50
2023-05-19T11:08:35.090Z,1.70
2023-05-19T11:11:16.531Z,1.73
2023-05-19T11:13:50.926Z,1.52
2023-05-19T11:16:31.027Z,1.70
2023-05-19T11:19:02.864Z,1.67
2023-05-19T11:21:47.020Z,1.63
2023-05-19T11:24:46.560Z,1.60
2023-05-19T11:27:31.980Z,1.50
2023-05-19T11:30:05.554Z,1.70
2023-05-19T11:32:39.871Z,2.08
2023-05-19T11:35:11.704Z,1.88
2023-05-19T11:37:42.819Z,2.10
2023-05-19T11:40:19.009Z,1.65
2023-05-19T11:42:48.605Z,1.90
2023-05-19T11:45:19.418Z,1.90
2023-05-19T11:48:01.298Z,1.65
2023-05-19T11:50:32.062Z,1.70
2023-05-19T11:53:04.272Z,1.52
2023-05-19T11:55:38.245Z,1.80
2023-05-19T11:58:08.248Z,1.98
2023-05-19T12:00:40.405Z,1.83
2023-05-19T12:05:46.796Z,2.10
2023-05-19T12:08:18.236Z,1.60
2023-05-19T12:10:51.638Z,1.60
2023-05-19T12:13:23.514Z,1.55
2023-05-19T12:15:53.869Z,1.60
2023-05-19T12:18:24.038Z,1.60
2023-05-19T12:20:53.850Z,1.63
2023-05-19T12:23:24.928Z,1.45
2023-05-19T12:25:57.530Z,2.03
2023-05-19T12:28:28.081Z,1.70
2023-05-19T12:30:59.129Z,1.50
2023-05-19T12:33:30.288Z,1.98
2023-05-19T12:36:00.056Z,1.80
2023-05-19T12:38:31.059Z,1.75
2023-05-19T12:41:06.476Z,1.70
2023-05-19T12:43:37.066Z,1.92
2023-05-19T12:46:12.871Z,1.70
2023-05-19T12:48:46.238Z,1.67
2023-05-19T12:51:20.092Z,1.67
2023-05-19T12:53:50.275Z,1.50
2023-05-19T12:56:24.553Z,1.92
2023-05-19T12:58:57.369Z,1.38
2023-05-19T13:01:28.466Z,1.73
2023-05-19T13:03:58.351Z,1.70
2023-05-19T13:06:28.798Z,2.47
2023-05-19T13:08:58.642Z,1.80
2023-05-19T13:11:30.713Z,1.90
2023-05-19T13:14:00.213Z,1.80
2023-05-19T13:16:30.229Z,1.52
2023-05-19T13:18:59.860Z,1.55
2023-05-19T13:21:29.864Z,1.50
2023-05-19T13:23:59.321Z,1.45
2023-05-19T13:26:31.405Z,1.63
2023-05-19T13:29:00.927Z,2.00
2023-05-19T13:31:34.009Z,1.80
2023-05-19T13:34:03.574Z,1.83
2023-05-19T13:36:33.434Z,1.52
2023-05-19T13:39:03.609Z,1.48
2023-05-19T13:41:35.836Z,1.38
2023-05-19T13:44:06.687Z,1.70
2023-05-19T13:46:44.793Z,1.60
2023-05-19T13:49:16.094Z,1.90
2023-05-19T13:51:46.299Z,1.75
2023-05-19T13:54:15.867Z,1.77
2023-05-19T13:56:48.842Z,1.77
2023-05-19T13:59:18.626Z,1.98
2023-05-19T14:01:48.324Z,1.50
2023-05-19T14:04:20.336Z,1.50
2023-05-19T14:06:49.937Z,1.40
2023-05-19T14:09:19.534Z,1.55
2023-05-19T14:11:52.113Z,1.90
2023-05-19T14:16:51.067Z,1.52
2023-05-19T14:19:20.821Z,1.67
2023-05-19T14:21:50.524Z,1.40
2023-05-19T14:24:20.313Z,1.50
2023-05-19T14:26:53.445Z,1.60
2023-05-19T14:29:22.934Z,1.63
2023-05-19T14:31:52.470Z,1.80
2023-05-19T14:34:22.070Z,1.80
2023-05-19T14:36:51.658Z,3.13
2023-05-19T14:39:21.219Z,2.15
2023-05-19T14:41:53.312Z,1.88
2023-05-19T14:44:22.814Z,1.70
2023-05-19T14:46:52.365Z,1.48
2023-05-19T14:49:21.921Z,1.77
2023-05-19T14:51:51.410Z,1.98
2023-05-19T14:54:20.906Z,1.60
2023-05-19T14:56:52.993Z,1.67
2023-05-19T14:59:22.537Z,1.70
2023-05-19T15:01:52.191Z,1.73
2023-05-19T15:04:21.837Z,1.40
2023-05-19T15:07:05.740Z,1.52
2023-05-19T15:09:38.989Z,1.48
2023-05-19T15:12:11.255Z,1.80
2023-05-19T15:14:40.802Z,1.60
2023-05-19T15:17:10.410Z,1.90
2023-05-19T15:19:41.138Z,1.63
2023-05-19T15:22:10.883Z,1.60
2023-05-19T15:24:41.340Z,1.60
2023-05-19T15:27:13.653Z,1.67
2023-05-19T15:29:43.200Z,1.83
2023-05-19T15:32:12.662Z,1.67
2023-05-19T15:34:42.200Z,1.52
2023-05-19T15:37:11.672Z,1.67
2023-05-19T15:39:41.180Z,1.77
2023-05-19T15:42:13.345Z,1.98
2023-05-19T15:44:42.823Z,1.70
2023-05-19T15:47:12.292Z,1.60
2023-05-19T15:49:41.812Z,1.63
2023-05-19T15:52:11.294Z,1.85
2023-05-19T15:54:41.010Z,1.42
2023-05-19T15:57:13.658Z,1.60
2023-05-19T15:59:43.187Z,1.55
2023-05-19T16:02:12.922Z,1.40
2023-05-19T16:04:42.484Z,1.80
2023-05-19T16:07:11.954Z,1.80
2023-05-19T16:09:41.440Z,1.80
2023-05-19T16:12:13.501Z,1.60
2023-05-19T16:14:42.965Z,1.63
2023-05-19T16:17:15.250Z,1.83
2023-05-19T16:19:44.735Z,1.50
2023-05-19T16:22:14.377Z,1.40
2023-05-19T16:24:43.873Z,1.90
2023-05-19T16:27:15.894Z,1.73
2023-05-19T16:29:45.379Z,1.60
2023-05-19T16:32:14.930Z,1.80
2023-05-19T16:34:44.394Z,2.10
2023-05-19T16:37:13.954Z,2.35
2023-05-19T16:39:43.922Z,1.80
2023-05-19T16:42:16.033Z,1.63
2023-05-19T16:44:45.501Z,1.70
2023-05-19T16:47:15.729Z,1.70
2023-05-19T16:49:45.458Z,1.73
2023-05-19T16:52:14.972Z,2.10
2023-05-19T16:54:44.448Z,1.80
2023-05-19T16:57:17.039Z,1.83
2023-05-19T17:02:15.885Z,1.83
2023-05-19T17:04:45.374Z,1.90
2023-05-19T17:07:15.997Z,1.60
2023-05-19T17:09:46.059Z,1.65
2023-05-19T17:12:18.157Z,1.65
2023-05-19T17:14:47.660Z,1.73
2023-05-19T17:17:17.207Z,1.73
2023-05-19T17:19:46.966Z,2.00
2023-05-19T17:22:16.431Z,1.88
2023-05-19T17:24:45.966Z,1.80
2023-05-19T17:27:18.041Z,1.77
2023-05-19T17:29:47.819Z,1.70
2023-05-19T17:32:17.392Z,1.55
2023-05-19T17:34:46.927Z,2.03
2023-05-19T17:37:19.214Z,1.58
2023-05-19T17:39:48.703Z,2.10
2023-05-19T17:42:20.792Z,2.10
2023-05-19T17:44:50.318Z,1.75
2023-05-19T17:47:19.800Z,1.77
2023-05-19T17:49:50.273Z,1.60
2023-05-19T17:52:19.936Z,1.75
2023-05-19T17:54:50.641Z,1.80
2023-05-19T17:57:27.231Z,2.42
2023-05-19T17:59:57.407Z,2.20
2023-05-19T18:02:27.463Z,1.80
2023-05-19T18:04:57.586Z,2.08
2023-05-19T18:07:28.311Z,1.73
2023-05-19T18:09:58.836Z,1.80
2023-05-19T18:12:30.868Z,1.85
2023-05-19T18:15:00.558Z,2.00
2023-05-19T18:17:30.114Z,2.00
2023-05-19T18:19:59.621Z,1.70
2023-05-19T18:22:29.126Z,1.65
2023-05-19T18:24:58.995Z,2.03
2023-05-19T18:27:31.556Z,1.88
2023-05-19T18:32:30.369Z,2.03
2023-05-19T18:35:00.038Z,2.00
2023-05-19T18:37:29.875Z,1.92
2023-05-19T18:39:59.453Z,2.00
2023-05-19T18:42:31.457Z,1.95
2023-05-19T18:45:00.920Z,2.20
2023-05-19T18:47:30.376Z,2.22
2023-05-19T18:50:00.266Z,2.10
2023-05-19T18:52:31.410Z,1.90
2023-05-19T18:55:01.371Z,1.55
2023-05-19T18:57:33.513Z,1.83
2023-05-19T19:00:08.164Z,2.10
2023-05-19T19:02:37.656Z,1.70
2023-05-19T19:05:09.629Z,1.63
2023-05-19T19:07:43.351Z,1.80
2023-05-19T19:10:15.342Z,2.13
2023-05-19T19:12:47.487Z,2.03
2023-05-19T19:15:16.969Z,1.98
2023-05-19T19:17:46.454Z,1.80
2023-05-19T19:20:18.797Z,1.63
2023-05-19T19:22:48.247Z,1.90
2023-05-19T19:25:17.788Z,1.50
2023-05-19T19:27:49.820Z,1.70
2023-05-19T19:30:19.321Z,2.10
2023-05-19T19:32:48.897Z,2.33
2023-05-19T19:35:18.651Z,2.47
2023-05-19T19:37:48.130Z,2.05
2023-05-19T19:40:18.232Z,1.92
2023-05-19T19:42:50.311Z,2.08
2023-05-19T19:45:20.992Z,2.00
2023-05-19T19:47:51.962Z,2.33
2023-05-19T19:50:22.081Z,2.33
2023-05-19T19:52:51.835Z,2.03
2023-05-19T19:55:21.312Z,2.00
2023-05-19T19:57:53.349Z,1.85
2023-05-19T20:00:23.289Z,2.00
2023-05-19T20:03:03.656Z,2.10
2023-05-19T20:05:34.426Z,2.13
2023-05-19T20:08:04.547Z,1.80
2023-05-19T20:10:34.304Z,2.00
2023-05-19T20:13:06.535Z,2.30
2023-05-19T20:15:36.050Z,1.88
2023-05-19T20:18:05.552Z,1.80
2023-05-19T20:20:35.404Z,1.83
2023-05-19T20:23:05.127Z,2.15
2023-05-19T20:25:34.885Z,2.20
2023-05-19T20:28:07.689Z,2.00
2023-05-19T20:33:07.277Z,2.00
2023-05-19T20:35:36.812Z,1.70
2023-05-19T20:38:06.327Z,2.05
2023-05-19T20:40:36.088Z,2.10
2023-05-19T20:43:08.174Z,2.00
2023-05-19T20:45:37.943Z,2.13
2023-05-19T20:48:08.788Z,2.50
2023-05-19T20:50:38.403Z,2.00
2023-05-19T20:53:07.951Z,2.17
2023-05-19T20:55:38.073Z,2.08
2023-05-19T20:58:10.137Z,2.33
2023-05-19T21:00:39.685Z,2.25
2023-05-19T21:03:09.233Z,1.85
2023-05-19T21:05:38.921Z,2.10
2023-05-19T21:08:12.927Z,1.83
2023-05-19T21:10:42.516Z,1.85
2023-05-19T21:13:14.941Z,1.98
2023-05-19T21:15:44.458Z,1.80
2023-05-19T21:18:14.352Z,2.05
2023-05-19T21:20:43.890Z,1.77
2023-05-19T21:23:13.472Z,1.80
2023-05-19T21:25:45.106Z,2.10
2023-05-19T21:28:17.590Z,1.90
2023-05-19T21:30:50.354Z,2.08
2023-05-19T21:33:19.949Z,2.00
2023-05-19T21:35:49.432Z,2.00
2023-05-19T21:38:23.812Z,1.98
2023-05-19T21:40:54.042Z,2.15
2023-05-19T21:43:26.130Z,2.22
2023-05-19T21:45:55.627Z,2.38
2023-05-19T21:48:25.183Z,2.13
2023-05-19T21:50:56.279Z,2.40
2023-05-19T21:53:25.774Z,2.20
2023-05-19T21:55:55.323Z,2.00
2023-05-19T21:58:27.503Z,2.47
2023-05-19T22:00:57.252Z,2.10
2023-05-19T22:03:26.903Z,2.20
2023-05-19T22:05:57.816Z,1.70
2023-05-19T22:08:27.322Z,1.90
2023-05-19T22:10:56.834Z,1.92
2023-05-19T22:13:28.908Z,1.73
2023-05-19T22:15:58.464Z,2.13
2023-05-19T22:18:28.025Z,1.75
2023-05-19T22:20:57.513Z,1.95
2023-05-19T22:23:26.980Z,1.92
2023-05-19T22:25:56.461Z,2.00
2023-05-19T22:28:28.498Z,2.22
2023-05-19T22:30:57.984Z,2.08
2023-05-19T22:33:27.483Z,1.90
2023-05-19T22:35:57.077Z,2.45
2023-05-19T22:38:26.538Z,2.28
2023-05-19T22:40:56.131Z,2.00
2023-05-19T22:43:28.212Z,2.00
2023-05-19T22:45:57.676Z,2.40
2023-05-19T22:48:27.415Z,2.05
2023-05-19T22:50:56.949Z,2.13
2023-05-19T22:53:26.519Z,2.20
2023-05-19T22:55:55.989Z,2.10
2023-05-19T22:58:28.384Z,1.98
2023-05-19T23:00:57.877Z,1.85
2023-05-19T23:03:27.373Z,1.90
2023-05-19T23:05:56.838Z,2.17
2023-05-19T23:08:26.448Z,2.10
2023-05-19T23:10:55.902Z,2.25
2023-05-19T23:13:28.130Z,2.45
2023-05-19T23:15:57.594Z,2.13
2023-05-19T23:18:27.100Z,2.17
2023-05-19T23:20:56.615Z,1.95
2023-05-19T23:23:27.582Z,2.15
2023-05-19T23:25:57.627Z,2.25
2023-05-19T23:28:29.678Z,2.20
2023-05-19T23:30:59.429Z,2.10
2023-05-19T23:33:28.979Z,2.33
2023-05-19T23:35:58.463Z,2.55
2023-05-19T23:38:27.947Z,3.10
2023-05-19T23:40:57.457Z,2.07
2023-05-19T23:43:29.592Z,2.70
2023-05-19T23:45:59.066Z,2.22
2023-05-19T23:48:29.674Z,2.00
2023-05-19T23:50:59.820Z,2.35
2023-05-19T23:53:29.381Z,2.10
2023-05-19T23:55:58.894Z,2.13
2023-05-19T23:58:30.961Z,1.85
